createdAt,value
2023-05-22T00:01:32.353Z,6.63
2023-05-22T00:04:00.074Z,6.23
2023-05-22T00:06:27.623Z,5.80
2023-05-22T00:08:55.097Z,6.10
2023-05-22T00:11:24.858Z,6.30
2023-05-22T00:13:52.348Z,6.13
2023-05-22T00:16:19.819Z,5.70
2023-05-22T00:18:47.622Z,6.00
2023-05-22T00:21:17.055Z,6.40
2023-05-22T00:23:44.641Z,6.00
2023-05-22T00:26:12.075Z,6.20
2023-05-22T00:28:41.134Z,6.73
2023-05-22T00:31:09.264Z,6.07
2023-05-22T00:33:36.935Z,6.13
2023-05-22T00:36:04.558Z,6.80
2023-05-22T00:38:33.081Z,6.57
2023-05-22T00:41:00.670Z,6.43
2023-05-22T00:43:28.232Z,6.90
2023-05-22T00:45:56.958Z,6.33
2023-05-22T00:48:24.640Z,6.03
2023-05-22T00:50:55.300Z,6.20
2023-05-22T00:53:23.479Z,6.20
2023-05-22T00:55:51.670Z,5.67
2023-05-22T00:58:19.304Z,5.87
2023-05-22T01:00:47.532Z,6.00
2023-05-22T01:03:17.460Z,6.60
2023-05-22T01:05:45.272Z,5.77
2023-05-22T01:08:13.266Z,5.97
2023-05-22T01:10:41.530Z,5.57
2023-05-22T01:13:14.636Z,5.87
2023-05-22T01:15:45.135Z,5.73
2023-05-22T01:18:19.815Z,6.03
2023-05-22T01:20:52.019Z,6.00
2023-05-22T01:23:40.777Z,6.03
2023-05-22T01:26:22.684Z,5.57
2023-05-22T01:29:02.868Z,5.77
2023-05-22T01:31:32.583Z,5.67
2023-05-22T01:34:02.061Z,5.40
2023-05-22T01:36:30.976Z,5.47
2023-05-22T01:39:01.737Z,5.83
2023-05-22T01:41:30.346Z,5.67
2023-05-22T01:43:58.302Z,5.87
2023-05-22T01:46:26.457Z,5.83
2023-05-22T01:48:55.726Z,6.37
2023-05-22T01:51:26.440Z,5.33
2023-05-22T01:53:58.044Z,5.67
2023-05-22T01:56:31.783Z,5.17
2023-05-22T01:59:02.344Z,5.03
2023-05-22T02:01:32.287Z,5.60
2023-05-22T02:04:02.600Z,6.27
2023-05-22T02:06:32.203Z,5.43
2023-05-22T02:09:01.144Z,5.77
2023-05-22T02:11:30.208Z,5.60
2023-05-22T02:13:58.541Z,5.80
2023-05-22T02:16:26.067Z,5.20
2023-05-22T02:19:03.064Z,5.10
2023-05-22T02:21:33.756Z,5.20
2023-05-22T02:24:02.238Z,5.57
2023-05-22T02:26:29.735Z,6.13
2023-05-22T02:28:57.444Z,5.30
2023-05-22T02:31:26.495Z,5.70
2023-05-22T02:33:54.146Z,5.50
2023-05-22T02:36:21.880Z,5.00
2023-05-22T02:38:51.016Z,5.40
2023-05-22T02:41:19.229Z,5.70
2023-05-22T02:43:46.902Z,5.67
2023-05-22T02:46:14.367Z,5.50
2023-05-22T02:48:41.845Z,6.17
2023-05-22T02:51:09.422Z,5.67
2023-05-22T02:53:40.136Z,5.17
2023-05-22T02:56:10.667Z,5.83
2023-05-22T02:58:38.622Z,5.80
2023-05-22T03:01:08.945Z,5.47
2023-05-22T03:03:36.477Z,5.70
2023-05-22T03:06:04.407Z,5.80
2023-05-22T03:08:34.153Z,5.70
2023-05-22T03:11:03.744Z,5.13
2023-05-22T03:13:32.597Z,5.83
2023-05-22T03:16:00.667Z,5.60
2023-05-22T03:18:29.413Z,5.60
2023-05-22T03:20:57.451Z,5.50
2023-05-22T03:23:25.189Z,6.27
2023-05-22T03:25:53.153Z,6.00
2023-05-22T03:28:21.756Z,5.40
2023-05-22T03:30:51.149Z,6.03
2023-05-22T03:33:23.804Z,5.77
2023-05-22T03:35:51.497Z,5.90
2023-05-22T03:38:19.182Z,5.37
2023-05-22T03:40:46.701Z,5.70
2023-05-22T03:43:14.913Z,5.67
2023-05-22T03:45:43.856Z,6.23
2023-05-22T03:48:13.780Z,5.63
2023-05-22T03:50:41.497Z,5.87
2023-05-22T03:53:09.653Z,5.40
2023-05-22T03:55:38.018Z,5.67
2023-05-22T03:58:05.636Z,5.57
2023-05-22T04:00:33.300Z,5.63
2023-05-22T04:03:00.856Z,6.00
2023-05-22T04:05:30.356Z,6.60
2023-05-22T04:07:58.256Z,6.30
2023-05-22T04:10:25.807Z,5.87
2023-05-22T04:12:53.537Z,6.53
2023-05-22T04:15:21.861Z,6.67
2023-05-22T04:17:49.924Z,6.73
2023-05-22T04:20:17.993Z,7.13
2023-05-22T04:22:48.855Z,6.73
2023-05-22T04:25:16.406Z,7.07
2023-05-22T04:27:45.187Z,6.50
2023-05-22T04:30:14.351Z,6.90
2023-05-22T04:32:41.755Z,6.23
2023-05-22T04:35:09.997Z,6.60
2023-05-22T04:37:37.570Z,6.40
2023-05-22T04:40:08.341Z,6.77
2023-05-22T04:42:37.299Z,6.37
2023-05-22T04:45:05.109Z,7.50
2023-05-22T04:47:32.707Z,6.70
2023-05-22T04:50:05.424Z,7.10
2023-05-22T04:52:33.054Z,6.33
2023-05-22T04:55:01.479Z,6.90
2023-05-22T04:57:31.034Z,6.23
2023-05-22T04:59:58.778Z,6.03
2023-05-22T05:02:26.366Z,6.47
2023-05-22T05:04:54.051Z,7.17
2023-05-22T05:07:21.621Z,7.33
2023-05-22T05:09:49.379Z,7.63
2023-05-22T05:12:17.075Z,6.70
2023-05-22T05:14:46.309Z,6.83
2023-05-22T05:17:15.833Z,6.63
2023-05-22T05:19:43.272Z,7.20
2023-05-22T05:22:10.829Z,6.80
2023-05-22T05:24:38.669Z,7.30
2023-05-22T05:27:06.579Z,7.20
2023-05-22T05:29:33.962Z,7.03
2023-05-22T05:32:09.364Z,7.13
2023-05-22T05:35:02.695Z,7.10
2023-05-22T05:37:49.549Z,7.33
2023-05-22T05:40:18.789Z,7.07
2023-05-22T05:42:50.720Z,7.13
2023-05-22T05:45:21.361Z,6.27
2023-05-22T05:47:50.421Z,6.77
2023-05-22T05:50:19.034Z,7.00
2023-05-22T05:52:46.688Z,6.07
2023-05-22T05:55:17.033Z,6.07
2023-05-22T05:57:44.949Z,6.17
2023-05-22T06:00:19.185Z,5.43
2023-05-22T06:02:51.145Z,5.57
2023-05-22T06:05:39.316Z,5.80
2023-05-22T06:08:27.237Z,6.43
2023-05-22T06:10:55.101Z,5.50
2023-05-22T06:13:36.847Z,6.03
2023-05-22T06:16:06.771Z,5.63
2023-05-22T06:18:37.117Z,5.43
2023-05-22T06:21:06.935Z,5.60
2023-05-22T06:23:35.056Z,5.50
2023-05-22T06:26:02.906Z,5.10
2023-05-22T06:28:30.649Z,5.77
2023-05-22T06:31:00.509Z,5.60
2023-05-22T06:33:29.102Z,5.67
2023-05-22T06:35:58.637Z,5.23
2023-05-22T06:38:26.902Z,4.87
2023-05-22T06:40:55.176Z,4.63
2023-05-22T06:43:25.524Z,6.23
2023-05-22T06:46:01.208Z,4.33
2023-05-22T06:48:40.955Z,4.20
2023-05-22T06:51:17.999Z,3.97
2023-05-22T06:53:51.430Z,4.13
2023-05-22T06:56:24.742Z,3.97
2023-05-22T06:58:55.054Z,4.33
2023-05-22T07:01:29.234Z,4.13
2023-05-22T07:04:12.040Z,4.43
2023-05-22T07:07:02.412Z,4.07
2023-05-22T07:09:30.009Z,4.97
2023-05-22T07:11:57.402Z,4.17
2023-05-22T07:14:25.141Z,4.00
2023-05-22T07:16:52.770Z,3.77
2023-05-22T07:19:26.697Z,4.07
2023-05-22T07:21:56.618Z,3.60
2023-05-22T07:24:25.844Z,3.93
2023-05-22T07:26:53.776Z,3.50
2023-05-22T07:29:23.197Z,3.57
2023-05-22T07:31:53.702Z,3.67
2023-05-22T07:34:23.722Z,3.30
2023-05-22T07:36:52.030Z,3.67
2023-05-22T07:39:20.029Z,4.00
2023-05-22T07:41:51.295Z,3.93
2023-05-22T07:44:20.522Z,4.20
2023-05-22T07:46:48.483Z,3.70
2023-05-22T07:49:22.051Z,3.40
2023-05-22T07:51:50.970Z,3.83
2023-05-22T07:54:19.829Z,3.83
2023-05-22T07:56:52.906Z,3.60
2023-05-22T07:59:22.036Z,3.53
2023-05-22T08:01:49.822Z,3.90
2023-05-22T08:04:17.933Z,3.30
2023-05-22T08:06:45.454Z,3.40
2023-05-22T08:09:12.864Z,3.60
2023-05-22T08:11:42.184Z,3.23
2023-05-22T08:14:10.964Z,3.40
2023-05-22T08:16:38.414Z,3.50
2023-05-22T08:19:07.011Z,3.50
2023-05-22T08:21:35.803Z,3.53
2023-05-22T08:24:03.337Z,3.50
2023-05-22T08:26:32.227Z,3.43
2023-05-22T08:29:00.137Z,3.10
2023-05-22T08:31:29.723Z,3.50
2023-05-22T08:34:02.178Z,4.00
2023-05-22T08:36:31.336Z,3.30
2023-05-22T08:38:58.725Z,3.63
2023-05-22T08:41:26.104Z,3.23
2023-05-22T08:43:53.552Z,3.77
2023-05-22T08:46:21.646Z,3.90
2023-05-22T08:48:52.299Z,3.10
2023-05-22T08:51:20.530Z,3.40
2023-05-22T08:53:50.741Z,3.80
2023-05-22T08:56:18.565Z,3.20
2023-05-22T08:58:46.864Z,3.40
2023-05-22T09:01:14.935Z,3.40
2023-05-22T09:03:42.908Z,3.30
2023-05-22T09:06:12.590Z,3.47
2023-05-22T09:08:40.112Z,3.57
2023-05-22T09:11:07.711Z,3.37
2023-05-22T09:13:35.073Z,3.47
2023-05-22T09:16:08.881Z,3.80
2023-05-22T09:18:37.266Z,3.50
2023-05-22T09:21:11.412Z,3.30
2023-05-22T09:23:50.885Z,3.47
2023-05-22T09:26:18.846Z,3.67
2023-05-22T09:28:48.174Z,3.30
2023-05-22T09:31:16.442Z,3.20
2023-05-22T09:33:45.196Z,3.20
2023-05-22T09:36:12.640Z,3.17
2023-05-22T09:38:40.154Z,2.97
2023-05-22T09:41:08.958Z,2.87
2023-05-22T09:43:36.414Z,2.90
2023-05-22T09:46:04.789Z,2.97
2023-05-22T09:48:34.809Z,2.80
2023-05-22T09:51:03.455Z,3.10
2023-05-22T09:53:33.715Z,2.77
2023-05-22T09:56:01.652Z,3.07
2023-05-22T09:58:31.750Z,2.83
2023-05-22T10:01:00.193Z,2.70
2023-05-22T10:03:27.824Z,3.00
2023-05-22T10:05:56.232Z,2.90
2023-05-22T10:08:29.393Z,2.80
2023-05-22T10:10:57.884Z,3.50
2023-05-22T10:13:26.367Z,2.60
2023-05-22T10:15:55.383Z,2.40
2023-05-22T10:18:22.968Z,2.43
2023-05-22T10:20:50.734Z,2.57
2023-05-22T10:23:18.856Z,2.70
2023-05-22T10:25:46.835Z,2.50
2023-05-22T10:28:15.954Z,2.80
2023-05-22T10:30:48.967Z,2.77
2023-05-22T10:33:40.226Z,2.50
2023-05-22T10:36:09.710Z,2.63
2023-05-22T10:38:44.858Z,2.93
2023-05-22T10:41:12.563Z,3.00
2023-05-22T10:43:41.893Z,3.00
2023-05-22T10:46:11.450Z,3.10
2023-05-22T10:48:40.654Z,2.93
2023-05-22T10:51:08.370Z,3.50
2023-05-22T10:53:36.728Z,3.33
2023-05-22T10:56:11.390Z,3.27
2023-05-22T10:58:39.101Z,3.40
2023-05-22T11:01:10.839Z,3.37
2023-05-22T11:03:59.567Z,3.87
2023-05-22T11:06:36.290Z,3.73
2023-05-22T11:09:18.024Z,3.10
2023-05-22T11:11:45.761Z,3.70
2023-05-22T11:14:14.029Z,3.93
2023-05-22T11:16:41.730Z,3.33
2023-05-22T11:19:22.573Z,3.50
2023-05-22T11:21:52.530Z,3.30
2023-05-22T11:24:20.444Z,3.60
2023-05-22T11:27:01.933Z,3.53
2023-05-22T11:29:29.851Z,3.40
2023-05-22T11:31:57.770Z,3.40
2023-05-22T11:34:25.458Z,3.47
2023-05-22T11:36:58.300Z,3.40
2023-05-22T11:39:26.133Z,3.70
2023-05-22T11:41:53.570Z,3.20
2023-05-22T11:44:21.283Z,3.27
2023-05-22T11:46:48.777Z,3.30
2023-05-22T11:49:17.298Z,3.40
2023-05-22T11:51:45.045Z,3.80
2023-05-22T11:54:13.950Z,3.20
2023-05-22T11:56:42.740Z,2.97
2023-05-22T11:59:10.228Z,2.73
2023-05-22T12:01:37.719Z,3.10
2023-05-22T12:04:06.063Z,3.07
2023-05-22T12:06:35.478Z,3.20
2023-05-22T12:09:03.035Z,2.90
2023-05-22T12:11:35.149Z,3.07
2023-05-22T12:14:02.914Z,3.00
2023-05-22T12:16:34.770Z,3.20
2023-05-22T12:19:05.301Z,3.00
2023-05-22T12:21:33.238Z,2.60
2023-05-22T12:24:03.652Z,2.80
2023-05-22T12:26:33.085Z,2.90
2023-05-22T12:29:01.119Z,3.30
2023-05-22T12:31:28.522Z,2.77
2023-05-22T12:33:56.005Z,3.30
2023-05-22T12:36:32.144Z,3.00
2023-05-22T12:38:59.543Z,3.10
2023-05-22T12:41:27.378Z,2.83
2023-05-22T12:43:56.184Z,2.97
2023-05-22T12:46:23.585Z,3.23
2023-05-22T12:48:51.208Z,3.00
2023-05-22T12:51:20.024Z,3.03
2023-05-22T12:53:47.789Z,3.07
2023-05-22T12:56:15.142Z,3.10
2023-05-22T12:58:43.710Z,3.17
2023-05-22T13:01:12.874Z,2.80
2023-05-22T13:03:40.568Z,2.83
2023-05-22T13:06:08.304Z,2.87
2023-05-22T13:08:35.954Z,2.87
2023-05-22T13:11:03.420Z,2.73
2023-05-22T13:13:30.849Z,3.10
2023-05-22T13:15:58.526Z,3.03
2023-05-22T13:18:27.775Z,2.90
2023-05-22T13:20:56.265Z,2.80
2023-05-22T13:23:23.883Z,2.87
2023-05-22T13:25:52.514Z,3.07
2023-05-22T13:28:19.907Z,2.60
2023-05-22T13:30:47.303Z,2.90
2023-05-22T13:33:14.716Z,3.05
2023-05-22T13:35:43.674Z,2.87
2023-05-22T13:38:11.060Z,3.00
2023-05-22T13:40:38.705Z,2.92
2023-05-22T13:43:06.087Z,2.72
2023-05-22T13:45:33.472Z,3.20
2023-05-22T13:48:00.927Z,2.97
2023-05-22T13:50:28.366Z,2.83
2023-05-22T13:52:57.316Z,2.75
2023-05-22T13:55:25.241Z,2.75
2023-05-22T13:57:52.690Z,2.88
2023-05-22T14:00:21.573Z,3.35
2023-05-22T14:02:49.018Z,2.92
2023-05-22T14:05:16.649Z,3.30
2023-05-22T14:07:44.841Z,2.90
2023-05-22T14:10:13.594Z,2.85
2023-05-22T14:12:40.979Z,3.10
2023-05-22T14:15:09.208Z,3.03
2023-05-22T14:17:36.671Z,3.17
2023-05-22T14:20:04.706Z,3.20
2023-05-22T14:22:38.557Z,3.05
2023-05-22T14:25:12.569Z,3.15
2023-05-22T14:27:41.584Z,3.50
2023-05-22T14:30:13.385Z,3.30
2023-05-22T14:32:40.821Z,3.30
2023-05-22T14:35:08.570Z,3.20
2023-05-22T14:37:36.372Z,3.17
2023-05-22T14:40:04.226Z,2.90
2023-05-22T14:42:32.065Z,3.30
2023-05-22T14:45:01.661Z,3.10
2023-05-22T14:47:29.282Z,3.40
2023-05-22T14:50:06.202Z,3.20
2023-05-22T14:52:42.291Z,3.45
2023-05-22T14:55:10.292Z,3.30
2023-05-22T14:57:37.796Z,3.30
2023-05-22T15:00:09.656Z,3.60
2023-05-22T15:02:37.393Z,3.85
2023-05-22T15:05:05.529Z,3.25
2023-05-22T15:07:43.047Z,3.30
2023-05-22T15:10:12.336Z,3.33
2023-05-22T15:12:40.409Z,3.95
2023-05-22T15:15:09.890Z,3.22
2023-05-22T15:17:38.227Z,3.10
2023-05-22T15:20:07.076Z,3.15
2023-05-22T15:22:34.478Z,3.38
2023-05-22T15:25:05.541Z,3.35
2023-05-22T15:27:34.655Z,2.80
2023-05-22T15:30:02.198Z,3.40
2023-05-22T15:32:33.510Z,2.90
2023-05-22T15:35:00.934Z,2.95
2023-05-22T15:37:29.745Z,2.75
2023-05-22T15:39:59.009Z,2.70
2023-05-22T15:42:26.712Z,3.15
2023-05-22T15:44:54.354Z,2.90
2023-05-22T15:47:21.811Z,3.17
2023-05-22T15:49:50.596Z,3.00
2023-05-22T15:52:18.261Z,2.67
2023-05-22T15:54:45.737Z,2.85
2023-05-22T15:57:13.205Z,2.50
2023-05-22T15:59:41.001Z,3.00
2023-05-22T16:02:08.501Z,3.33
2023-05-22T16:04:36.151Z,2.72
2023-05-22T16:07:05.377Z,2.65
2023-05-22T16:09:33.037Z,2.50
2023-05-22T16:12:00.810Z,2.80
2023-05-22T16:14:28.253Z,3.27
2023-05-22T16:16:55.729Z,3.27
2023-05-22T16:19:23.819Z,2.97
2023-05-22T16:21:51.332Z,2.90
2023-05-22T16:24:20.045Z,3.17
2023-05-22T16:26:48.109Z,3.40
2023-05-22T16:29:15.623Z,3.30
2023-05-22T16:31:43.270Z,2.93
2023-05-22T16:34:10.715Z,2.73
2023-05-22T16:36:38.108Z,2.50
2023-05-22T16:39:05.778Z,2.70
2023-05-22T16:41:34.791Z,2.63
2023-05-22T16:44:02.472Z,2.67
2023-05-22T16:46:30.032Z,2.97
2023-05-22T16:48:57.434Z,2.67
2023-05-22T16:51:24.812Z,2.83
2023-05-22T16:53:52.236Z,2.80
2023-05-22T16:56:20.728Z,2.73
2023-05-22T16:58:49.936Z,2.70
2023-05-22T17:01:17.833Z,3.13
2023-05-22T17:03:45.528Z,2.90
2023-05-22T17:06:13.057Z,2.67
2023-05-22T17:08:40.665Z,2.63
2023-05-22T17:11:08.217Z,2.90
2023-05-22T17:13:35.612Z,2.97
2023-05-22T17:16:04.480Z,2.60
2023-05-22T17:18:32.951Z,2.90
2023-05-22T17:21:01.228Z,3.00
2023-05-22T17:23:28.906Z,2.83
2023-05-22T17:25:57.240Z,2.97
2023-05-22T17:28:24.687Z,2.43
2023-05-22T17:30:52.213Z,3.03
2023-05-22T17:33:21.037Z,3.00
2023-05-22T17:35:48.626Z,3.50
2023-05-22T17:38:16.083Z,2.60
2023-05-22T17:40:46.041Z,2.90
2023-05-22T17:43:14.023Z,2.67
2023-05-22T17:45:41.664Z,2.97
2023-05-22T17:48:09.658Z,2.43
2023-05-22T17:50:40.537Z,2.93
2023-05-22T17:53:08.268Z,2.70
2023-05-22T17:55:36.052Z,3.00
2023-05-22T17:58:04.118Z,2.77
2023-05-22T18:00:31.751Z,2.83
2023-05-22T18:02:59.925Z,2.80
2023-05-22T18:05:27.352Z,2.73
2023-05-22T18:07:56.151Z,2.67
2023-05-22T18:10:24.789Z,2.90
2023-05-22T18:12:52.194Z,2.80
2023-05-22T18:15:19.839Z,2.90
2023-05-22T18:17:47.576Z,3.47
2023-05-22T18:20:16.695Z,3.20
2023-05-22T18:22:44.124Z,3.30
2023-05-22T18:25:13.057Z,3.47
2023-05-22T18:27:40.928Z,3.40
2023-05-22T18:30:09.222Z,2.83
2023-05-22T18:32:36.810Z,3.00
2023-05-22T18:35:04.897Z,3.13
2023-05-22T18:37:32.315Z,3.23
2023-05-22T18:39:59.746Z,3.00
2023-05-22T18:42:28.629Z,2.60
2023-05-22T18:44:56.013Z,2.70
2023-05-22T18:47:23.510Z,2.70
2023-05-22T18:49:51.204Z,3.00
2023-05-22T18:52:18.760Z,2.80
2023-05-22T18:54:46.149Z,2.70
2023-05-22T18:57:13.894Z,3.10
2023-05-22T18:59:43.481Z,3.00
2023-05-22T19:02:10.902Z,3.00
2023-05-22T19:04:38.547Z,2.80
2023-05-22T19:07:06.039Z,2.97
2023-05-22T19:09:33.436Z,2.87
2023-05-22T19:12:00.836Z,2.73
2023-05-22T19:14:28.224Z,2.73
2023-05-22T19:16:59.310Z,3.23
2023-05-22T19:19:27.482Z,3.20
2023-05-22T19:21:54.996Z,2.47
2023-05-22T19:24:23.200Z,3.10
2023-05-22T19:26:50.769Z,2.60
2023-05-22T19:29:18.128Z,3.50
2023-05-22T19:31:45.680Z,2.87
2023-05-22T19:34:15.125Z,2.80
2023-05-22T19:36:42.874Z,2.63
2023-05-22T19:39:10.339Z,2.77
2023-05-22T19:41:37.869Z,2.97
2023-05-22T19:44:05.678Z,3.10
2023-05-22T19:46:33.106Z,6.23
2023-05-22T19:49:00.825Z,10.67
2023-05-22T19:51:29.897Z,8.43
2023-05-22T19:53:57.414Z,7.57
2023-05-22T19:56:24.814Z,6.03
2023-05-22T19:58:52.529Z,5.93
2023-05-22T20:01:19.920Z,6.23
2023-05-22T20:03:47.772Z,5.30
2023-05-22T20:06:15.271Z,5.20
2023-05-22T20:08:44.305Z,4.57
2023-05-22T20:11:11.868Z,3.87
2023-05-22T20:13:39.258Z,3.70
2023-05-22T20:16:11.772Z,3.30
2023-05-22T20:18:40.975Z,3.50
2023-05-22T20:21:08.789Z,3.40
2023-05-22T20:23:36.243Z,3.83
2023-05-22T20:26:04.995Z,3.47
2023-05-22T20:28:33.038Z,3.13
2023-05-22T20:31:00.540Z,4.63
2023-05-22T20:33:28.267Z,5.93
2023-05-22T20:35:55.815Z,5.80
2023-05-22T20:38:23.471Z,6.40
2023-05-22T20:40:51.988Z,6.10
2023-05-22T20:43:20.830Z,6.40
2023-05-22T20:45:48.454Z,5.57
2023-05-22T20:48:16.575Z,5.50
2023-05-22T20:50:47.069Z,4.10
2023-05-22T20:53:14.966Z,4.60
2023-05-22T20:55:42.614Z,4.30
2023-05-22T20:58:10.511Z,4.47
2023-05-22T21:00:41.486Z,3.70
2023-05-22T21:03:09.102Z,3.83
2023-05-22T21:05:36.623Z,3.97
2023-05-22T21:08:04.288Z,4.43
2023-05-22T21:10:31.676Z,3.90
2023-05-22T21:12:59.304Z,4.33
2023-05-22T21:15:26.961Z,3.90
2023-05-22T21:17:56.726Z,4.40
2023-05-22T21:20:24.183Z,4.90
2023-05-22T21:22:51.783Z,4.30
2023-05-22T21:25:19.210Z,4.50
2023-05-22T21:27:48.304Z,4.50
2023-05-22T21:30:16.107Z,4.97
2023-05-22T21:32:43.721Z,4.43
2023-05-22T21:35:12.434Z,4.33
2023-05-22T21:37:40.872Z,4.77
2023-05-22T21:40:08.895Z,4.03
2023-05-22T21:42:45.745Z,3.57
2023-05-22T21:45:14.860Z,3.63
2023-05-22T21:47:42.480Z,3.50
2023-05-22T21:50:10.664Z,3.40
2023-05-22T21:52:39.678Z,3.77
2023-05-22T21:55:07.490Z,3.97
2023-05-22T21:57:35.274Z,3.23
2023-05-22T22:00:02.969Z,4.00
2023-05-22T22:02:32.585Z,4.00
2023-05-22T22:05:00.045Z,3.43
2023-05-22T22:07:27.418Z,3.70
2023-05-22T22:09:56.167Z,4.10
2023-05-22T22:12:23.556Z,3.83
2023-05-22T22:14:51.016Z,3.47
2023-05-22T22:17:23.622Z,3.73
2023-05-22T22:19:53.622Z,3.83
2023-05-22T22:22:22.591Z,4.00
2023-05-22T22:24:50.715Z,4.00
2023-05-22T22:27:20.034Z,4.07
2023-05-22T22:29:47.462Z,3.57
2023-05-22T22:32:14.992Z,3.80
2023-05-22T22:34:43.107Z,3.53
2023-05-22T22:37:11.194Z,3.50
2023-05-22T22:39:38.854Z,3.70
2023-05-22T22:42:06.460Z,3.70
2023-05-22T22:44:35.373Z,3.77
2023-05-22T22:47:03.159Z,3.70
2023-05-22T22:49:31.844Z,3.73
2023-05-22T22:51:59.288Z,3.73
2023-05-22T22:54:26.921Z,3.50
2023-05-22T22:56:54.431Z,3.60
2023-05-22T22:59:21.875Z,3.90
2023-05-22T23:01:50.982Z,3.40
2023-05-22T23:04:18.766Z,3.80
2023-05-22T23:06:46.247Z,3.63
2023-05-22T23:09:14.481Z,3.90
2023-05-22T23:11:41.907Z,4.13
2023-05-22T23:14:10.689Z,3.43
2023-05-22T23:16:40.643Z,3.80
2023-05-22T23:19:10.312Z,3.60
2023-05-22T23:21:37.782Z,3.70
2023-05-22T23:24:05.754Z,4.00
2023-05-22T23:26:33.542Z,3.80
2023-05-22T23:29:01.082Z,3.90
2023-05-22T23:31:30.330Z,3.60
2023-05-22T23:33:58.666Z,4.03
2023-05-22T23:36:27.572Z,3.70
2023-05-22T23:38:54.942Z,3.70
2023-05-22T23:41:24.415Z,3.57
2023-05-22T23:43:51.920Z,3.70
2023-05-22T23:46:21.460Z,3.70
2023-05-22T23:48:49.236Z,3.77
2023-05-22T23:51:16.957Z,4.00
2023-05-22T23:53:46.345Z,4.23
2023-05-22T23:56:13.959Z,4.50
2023-05-22T23:58:41.340Z,4.20
